Terminal Aerodrome Forecast
Issued by NWS

Home | Current Version | Previous Version | Text Only | Print | Product List | Glossary On
Versions: 1 2 3 4 5 6 7 8 9 10 11 12 13 14 15
000
FTUS41 KLWX 241100
TAFMTN
TAF
KMTN 241122Z 2412/2512 18013KT P6SM BKN008
     FM241300 19012KT P6SM BKN015
     FM241600 19014G22KT P6SM BKN030
     FM241900 20016G25KT P6SM SCT130
     FM250000 19011KT P6SM SCT250 WS020/21040KT
     FM250400 22008KT P6SM SCT250
     FM250800 28007KT P6SM SCT150=

USA.gov is the U.S. government's official web portal to all federal, state and local government web resources and services.